Time;durP1;ratioP1;P1;durP2;ratioP2;P2;SDS_P1;SDS_P2;PMS_P1;PMS_P2;Temp;Humidity;BMP_temperature;BMP_pressure;BME280_temperature;BME280_humidity;BME280_pressure;Samples;Min_cycle;Max_cycle;Signal;HPM_P1;HPM_P2
2022/10/10 00:01:16;;;;;;;4.97;2.60;;;9.80;99.90;;;;;;5071987;28;20576;-70
2022/10/10 00:03:43;;;;;;;7.47;2.70;;;9.70;99.90;;;;;;5071962;28;20032;-70
2022/10/10 00:06:10;;;;;;;5.83;2.70;;;9.80;99.90;;;;;;5072157;28;20024;-70
2022/10/10 00:08:36;;;;;;;6.17;2.37;;;9.80;99.90;;;;;;5071796;28;20036;-70
2022/10/10 00:11:03;;;;;;;5.00;2.13;;;9.80;99.90;;;;;;5054042;28;20051;-71
2022/10/10 00:13:29;;;;;;;4.60;2.20;;;9.80;99.90;;;;;;5071916;28;20032;-70
2022/10/10 00:15:55;;;;;;;5.23;2.17;;;9.80;99.90;;;;;;5071698;28;20035;-70
2022/10/10 00:18:21;;;;;;;5.83;2.40;;;9.70;99.90;;;;;;5072097;28;20029;-70
2022/10/10 00:20:50;;;;;;;4.47;1.80;;;9.70;99.90;;;;;;5071778;28;20082;-70
2022/10/10 00:23:16;;;;;;;3.13;2.13;;;9.70;99.90;;;;;;5071773;28;20105;-70
2022/10/10 00:25:42;;;;;;;5.80;1.97;;;9.80;99.90;;;;;;5071545;28;20544;-70
2022/10/10 00:28:08;;;;;;;7.20;1.97;;;9.70;99.90;;;;;;5037098;28;20127;-70
2022/10/10 00:30:34;;;;;;;5.80;2.00;;;9.60;99.90;;;;;;5071316;28;20393;-70
2022/10/10 00:33:00;;;;;;;5.57;2.07;;;9.70;99.90;;;;;;5071584;28;20035;-70
2022/10/10 00:35:27;;;;;;;4.73;2.10;;;9.60;99.90;;;;;;5071383;28;20484;-70
2022/10/10 00:37:53;;;;;;;3.93;2.30;;;9.60;99.90;;;;;;5071246;28;20115;-70
2022/10/10 00:40:20;;;;;;;5.80;2.00;;;9.50;99.90;;;;;;5036763;28;20021;-70
2022/10/10 00:42:46;;;;;;;6.63;2.33;;;9.60;99.90;;;;;;5071319;28;20029;-70
2022/10/10 00:45:38;;;;;;;5.20;1.90;;;9.50;99.90;;;;;;5071588;28;20029;-70
2022/10/10 00:48:12;;;;;;;5.43;2.20;;;9.60;99.90;;;;;;5071056;28;20492;-70
2022/10/10 00:51:07;;;;;;;5.33;2.07;;;9.50;99.90;;;;;;5071219;28;20032;-70
2022/10/10 00:53:38;;;;;;;3.60;2.13;;;9.60;99.90;;;;;;5068073;28;20499;-70
2022/10/10 00:56:05;;;;;;;6.23;2.33;;;9.50;99.90;;;;;;5070992;28;20028;-70
2022/10/10 00:58:32;;;;;;;5.60;2.20;;;9.60;99.90;;;;;;5071206;28;20090;-70
2022/10/10 01:00:58;;;;;;;4.27;1.97;;;9.70;99.90;;;;;;5071334;28;20033;-70
2022/10/10 01:03:25;;;;;;;5.30;2.03;;;9.70;99.90;;;;;;5071165;28;20090;-70
2022/10/10 01:05:51;;;;;;;4.53;1.90;;;9.60;99.90;;;;;;5070601;28;20124;-71
2022/10/10 01:08:18;;;;;;;4.10;1.70;;;9.70;99.90;;;;;;5070893;28;20109;-71
2022/10/10 01:10:53;;;;;;;3.90;1.87;;;9.70;99.90;;;;;;5071010;28;20033;-70
2022/10/10 01:13:45;;;;;;;3.90;1.80;;;9.70;99.90;;;;;;5052846;28;20025;-70
2022/10/10 01:16:26;;;;;;;6.10;1.83;;;9.70;99.90;;;;;;5071001;28;20024;-70
2022/10/10 01:18:55;;;;;;;6.27;2.30;;;9.70;99.90;;;;;;5070867;28;20032;-71
2022/10/10 01:21:39;;;;;;;4.15;1.80;;;9.70;99.90;;;;;;5070697;28;20032;-70
2022/10/10 01:24:14;;;;;;;3.30;1.83;;;9.70;99.90;;;;;;5070922;28;20033;-70
2022/10/10 01:27:06;;;;;;;5.93;2.00;;;9.80;99.90;;;;;;5070817;28;20036;-71
2022/10/10 01:29:51;;;;;;;3.67;1.70;;;9.80;99.90;;;;;;5070929;28;20503;-70
2022/10/10 01:32:33;;;;;;;4.60;1.90;;;9.80;99.90;;;;;;5070767;28;20032;-70
2022/10/10 01:35:17;;;;;;;3.73;1.70;;;9.80;99.90;;;;;;5070933;28;20036;-70
2022/10/10 01:38:12;;;;;;;3.93;1.90;;;9.90;99.90;;;;;;5070907;28;20021;-69
2022/10/10 01:40:54;;;;;;;3.73;1.57;;;10.00;99.90;;;;;;5062230;28;20040;-70
2022/10/10 01:43:20;;;;;;;5.23;1.97;;;10.00;99.90;;;;;;5070604;28;20024;-70
2022/10/10 01:45:51;;;;;;;3.40;1.60;;;10.00;99.90;;;;;;5071169;28;20028;-71
2022/10/10 01:48:22;;;;;;;4.07;1.90;;;10.00;99.90;;;;;;5070585;28;20028;-71
2022/10/10 01:51:14;;;;;;;3.60;1.90;;;10.10;99.90;;;;;;5070890;28;20020;-70
2022/10/10 01:54:17;;;;;;;3.77;2.13;;;10.20;99.90;;;;;;5070747;28;20025;-70
2022/10/10 01:57:14;;;;;;;5.70;2.13;;;10.20;99.90;;;;;;5043022;28;20048;-69
2022/10/10 01:59:55;;;;;;;3.33;1.93;;;10.20;99.90;;;;;;5070571;28;20477;-70
2022/10/10 02:02:49;;;;;;;4.70;2.30;;;10.20;99.90;;;;;;5070515;28;20025;-69
2022/10/10 02:05:22;;;;;;;3.73;1.73;;;10.20;99.90;;;;;;5070672;28;20111;-71
2022/10/10 02:08:02;;;;;;;4.13;1.70;;;10.30;99.90;;;;;;5052432;28;20116;-70
2022/10/10 02:10:34;;;;;;;3.93;1.70;;;10.30;99.90;;;;;;5070372;28;20029;-71
2022/10/10 02:13:02;;;;;;;5.20;2.00;;;10.30;99.90;;;;;;5070471;28;20550;-70
2022/10/10 02:15:44;;;;;;;3.90;1.90;;;10.30;99.90;;;;;;5070548;28;20469;-70
2022/10/10 02:18:12;;;;;;;3.57;1.60;;;10.30;99.90;;;;;;5073757;28;20056;-70
2022/10/10 02:20:40;;;;;;;3.00;1.60;;;10.30;99.90;;;;;;5073977;28;20070;-71
2022/10/10 02:23:07;;;;;;;3.13;1.60;;;10.30;99.90;;;;;;5074004;28;20404;-70
2022/10/10 02:25:37;;;;;;;5.47;1.50;;;10.30;99.90;;;;;;5073947;28;20070;-71
2022/10/10 02:28:18;;;;;;;3.97;1.70;;;10.40;99.90;;;;;;5074028;28;20397;-70
2022/10/10 02:30:48;;;;;;;3.67;1.60;;;10.50;99.90;;;;;;5073733;28;20028;-70
2022/10/10 02:33:22;;;;;;;4.57;1.60;;;10.50;99.90;;;;;;5073732;28;20021;-70
2022/10/10 02:35:50;;;;;;;4.07;1.60;;;10.50;99.90;;;;;;5055872;28;20043;-70
2022/10/10 02:38:17;;;;;;;3.80;1.58;;;10.60;99.90;;;;;;5073841;28;20024;-70
2022/10/10 02:40:46;;;;;;;2.60;1.37;;;10.60;99.90;;;;;;5073541;28;20017;-70
2022/10/10 02:43:14;;;;;;;5.27;2.03;;;10.60;99.90;;;;;;5073612;28;20028;-70
2022/10/10 02:45:41;;;;;;;3.60;1.80;;;10.70;99.90;;;;;;5073461;28;20271;-70
2022/10/10 02:48:08;;;;;;;4.23;1.60;;;10.70;99.90;;;;;;5073271;28;20089;-69
2022/10/10 02:50:34;;;;;;;4.10;1.77;;;10.70;99.90;;;;;;5073584;28;20032;-70
2022/10/10 02:53:00;;;;;;;3.43;1.50;;;10.70;99.90;;;;;;5073301;28;20530;-70
2022/10/10 02:55:26;;;;;;;4.13;1.70;;;10.80;99.90;;;;;;5073491;28;20123;-71
2022/10/10 02:57:53;;;;;;;4.57;1.70;;;10.80;99.90;;;;;;5073337;28;20398;-70
2022/10/10 03:00:20;;;;;;;4.73;1.63;;;10.80;99.90;;;;;;5073271;28;20036;-70
2022/10/10 03:02:46;;;;;;;5.27;2.03;;;10.80;99.90;;;;;;5073222;28;20029;-70
2022/10/10 03:05:12;;;;;;;5.50;1.80;;;10.80;99.90;;;;;;5073243;28;20111;-70
2022/10/10 03:07:38;;;;;;;4.57;1.77;;;10.80;99.90;;;;;;5073062;28;20157;-69
2022/10/10 03:10:06;;;;;;;3.70;1.97;;;10.80;99.90;;;;;;5072813;28;20035;-70
2022/10/10 03:12:33;;;;;;;3.80;1.77;;;10.80;99.90;;;;;;5073487;28;20489;-71
2022/10/10 03:14:59;;;;;;;4.80;1.93;;;10.80;99.90;;;;;;5073033;28;20025;-70
2022/10/10 03:17:25;;;;;;;4.10;1.97;;;10.90;99.90;;;;;;5072857;28;20021;-70
2022/10/10 03:19:51;;;;;;;2.80;1.50;;;10.90;99.90;;;;;;5072920;28;20202;-70
2022/10/10 03:22:17;;;;;;;3.83;1.67;;;10.80;99.90;;;;;;5072831;28;20039;-71
2022/10/10 03:24:43;;;;;;;2.93;1.70;;;10.80;99.90;;;;;;5073075;28;20043;-70
2022/10/10 03:27:08;;;;;;;4.50;1.90;;;10.80;99.90;;;;;;5072741;28;20374;-71
2022/10/10 03:29:35;;;;;;;3.67;1.90;;;10.80;99.90;;;;;;5071947;28;20093;-70
2022/10/10 03:32:01;;;;;;;4.97;1.87;;;10.80;99.90;;;;;;5072673;28;20028;-70
2022/10/10 03:34:27;;;;;;;5.73;1.90;;;10.80;99.90;;;;;;5072785;28;20040;-71
2022/10/10 03:36:53;;;;;;;4.57;1.97;;;10.80;99.90;;;;;;5072962;28;20024;-70
2022/10/10 03:39:19;;;;;;;3.23;1.60;;;10.80;99.90;;;;;;5054463;28;20047;-70
2022/10/10 03:41:44;;;;;;;4.07;1.80;;;10.80;99.90;;;;;;5072586;28;20033;-70
2022/10/10 03:44:10;;;;;;;4.67;2.40;;;10.80;99.90;;;;;;5054531;28;20032;-71
2022/10/10 03:46:36;;;;;;;4.77;2.00;;;10.80;99.90;;;;;;5072393;28;20040;-69
2022/10/10 03:49:03;;;;;;;6.30;2.27;;;10.80;99.90;;;;;;5072252;28;20046;-70
2022/10/10 03:51:28;;;;;;;4.27;2.10;;;10.80;99.90;;;;;;5072221;28;20095;-70
2022/10/10 03:53:54;;;;;;;5.50;1.80;;;10.80;99.90;;;;;;5072285;28;20638;-69
2022/10/10 03:56:20;;;;;;;5.07;2.27;;;10.80;99.90;;;;;;5072114;28;20041;-69
2022/10/10 03:58:46;;;;;;;6.13;1.90;;;10.70;99.90;;;;;;5072150;28;20051;-69
2022/10/10 04:01:12;;;;;;;4.47;1.70;;;10.70;99.90;;;;;;5054366;28;20040;-69
2022/10/10 04:03:38;;;;;;;4.13;1.87;;;10.70;99.90;;;;;;5054191;28;20029;-69
2022/10/10 04:06:05;;;;;;;3.60;2.03;;;10.70;99.90;;;;;;5072421;28;20028;-69
2022/10/10 04:08:31;;;;;;;5.43;2.20;;;10.70;99.90;;;;;;5071900;28;20416;-69
2022/10/10 04:11:00;;;;;;;5.13;2.10;;;10.60;99.90;;;;;;5072111;28;20107;-69
2022/10/10 04:13:26;;;;;;;5.80;2.30;;;10.70;99.90;;;;;;5054098;28;20028;-71
2022/10/10 04:15:54;;;;;;;3.67;1.87;;;10.60;99.90;;;;;;5053995;28;20037;-70
2022/10/10 04:18:21;;;;;;;5.85;1.92;;;10.50;99.90;;;;;;5071811;28;20153;-70
2022/10/10 04:20:47;;;;;;;7.10;2.40;;;10.60;99.90;;;;;;5071674;28;20496;-71
2022/10/10 04:23:14;;;;;;;5.13;1.90;;;10.50;99.90;;;;;;5071696;28;20033;-70
2022/10/10 04:25:40;;;;;;;4.90;2.20;;;10.60;99.90;;;;;;5071709;28;20074;-71
2022/10/10 04:28:11;;;;;;;3.67;2.10;;;10.60;99.90;;;;;;5053554;28;20025;-70
2022/10/10 04:30:37;;;;;;;5.93;2.20;;;10.60;99.90;;;;;;5071530;28;20393;-70
2022/10/10 04:33:03;;;;;;;5.67;1.93;;;10.60;99.90;;;;;;5071480;28;20028;-70
2022/10/10 04:35:29;;;;;;;4.27;2.20;;;10.60;99.90;;;;;;5071871;28;20155;-70
2022/10/10 04:37:55;;;;;;;4.93;2.10;;;10.60;99.90;;;;;;5071213;28;20025;-69
2022/10/10 04:40:21;;;;;;;4.37;2.40;;;10.60;99.90;;;;;;5071076;28;20033;-70
2022/10/10 04:42:47;;;;;;;5.27;2.47;;;10.50;99.90;;;;;;5071365;28;20099;-70
2022/10/10 04:45:13;;;;;;;7.87;2.40;;;10.50;99.90;;;;;;5053716;28;20115;-71
2022/10/10 04:47:39;;;;;;;5.43;2.30;;;10.50;99.90;;;;;;5071315;28;20390;-70
2022/10/10 04:50:05;;;;;;;6.37;2.37;;;10.50;99.90;;;;;;5071085;28;20041;-70
2022/10/10 04:52:31;;;;;;;7.23;2.57;;;10.50;99.90;;;;;;5071167;28;20035;-70
2022/10/10 04:54:57;;;;;;;5.23;2.53;;;10.50;99.90;;;;;;5071048;28;20035;-70
2022/10/10 04:57:23;;;;;;;5.23;2.37;;;10.50;99.90;;;;;;5071111;28;20024;-70
2022/10/10 04:59:49;;;;;;;6.20;2.33;;;10.50;99.90;;;;;;5071210;28;20033;-70
2022/10/10 05:02:15;;;;;;;5.47;2.30;;;10.50;99.90;;;;;;5070916;28;20037;-70
2022/10/10 05:04:41;;;;;;;4.63;2.20;;;10.50;99.90;;;;;;5071326;28;20036;-71
2022/10/10 05:07:07;;;;;;;6.63;2.70;;;10.40;99.90;;;;;;5071520;28;20115;-70
2022/10/10 05:09:32;;;;;;;5.50;2.53;;;10.50;99.90;;;;;;5070809;28;20071;-70
2022/10/10 05:11:59;;;;;;;4.27;2.57;;;10.50;99.90;;;;;;5071020;28;20434;-71
2022/10/10 05:14:25;;;;;;;5.63;2.50;;;10.40;99.90;;;;;;5070911;28;20020;-70
2022/10/10 05:16:51;;;;;;;7.20;2.60;;;10.40;99.90;;;;;;5070940;28;20081;-70
2022/10/10 05:19:17;;;;;;;6.37;2.50;;;10.40;99.90;;;;;;5070839;28;20059;-71
2022/10/10 05:21:43;;;;;;;8.07;2.80;;;10.40;99.90;;;;;;5052936;28;20450;-70
2022/10/10 05:24:09;;;;;;;6.60;2.70;;;10.40;99.90;;;;;;5070851;28;20024;-70
2022/10/10 05:26:35;;;;;;;5.93;3.37;;;10.40;99.90;;;;;;5070771;28;20028;-70
2022/10/10 05:29:01;;;;;;;7.43;2.87;;;10.40;99.90;;;;;;5070940;28;20031;-70
2022/10/10 05:31:27;;;;;;;6.07;3.00;;;10.50;99.90;;;;;;5070912;28;20035;-69
2022/10/10 05:33:54;;;;;;;7.00;3.10;;;10.40;99.90;;;;;;5070960;28;20033;-70
2022/10/10 05:36:20;;;;;;;7.60;3.17;;;10.40;99.90;;;;;;5070777;28;20043;-70
2022/10/10 05:38:45;;;;;;;6.30;3.17;;;10.40;99.90;;;;;;5070795;28;20028;-69
2022/10/10 05:41:11;;;;;;;4.97;2.87;;;10.40;99.90;;;;;;5070741;28;20059;-70
2022/10/10 05:43:37;;;;;;;5.27;2.93;;;10.50;99.90;;;;;;5071052;28;20373;-70
2022/10/10 05:46:04;;;;;;;6.30;3.00;;;10.50;99.90;;;;;;5070512;28;20508;-70
2022/10/10 05:48:30;;;;;;;7.70;2.83;;;10.60;99.90;;;;;;5070507;28;20033;-69
2022/10/10 05:50:59;;;;;;;4.97;3.07;;;10.60;99.90;;;;;;5070674;28;20023;-70
2022/10/10 05:53:26;;;;;;;5.93;3.43;;;10.50;99.90;;;;;;5074594;28;20025;-70
2022/10/10 05:55:52;;;;;;;8.40;3.33;;;10.60;99.90;;;;;;5089467;22;20446;-73
2022/10/10 05:58:18;;;;;;;7.40;3.33;;;10.60;99.90;;;;;;5074621;28;20029;-73
2022/10/10 06:00:45;;;;;;;8.97;3.60;;;10.60;99.90;;;;;;5074192;28;20083;-73
2022/10/10 06:03:15;;;;;;;7.17;3.73;;;10.60;99.90;;;;;;5074439;28;20016;-73
2022/10/10 06:05:43;;;;;;;11.27;4.20;;;10.70;99.90;;;;;;5074092;28;20025;-73
2022/10/10 06:08:09;;;;;;;9.13;4.03;;;10.70;99.90;;;;;;5056337;28;20469;-73
2022/10/10 06:10:41;;;;;;;10.53;4.57;;;10.70;99.90;;;;;;5056074;28;20085;-73
2022/10/10 06:13:08;;;;;;;11.00;4.27;;;10.70;99.90;;;;;;5074153;28;20025;-73
2022/10/10 06:15:34;;;;;;;9.63;3.77;;;10.70;99.90;;;;;;5073948;28;20039;-73
2022/10/10 06:18:00;;;;;;;8.37;4.00;;;10.70;99.90;;;;;;5056276;28;20488;-73
2022/10/10 06:20:26;;;;;;;9.13;4.23;;;10.70;99.90;;;;;;5073850;28;20040;-73
2022/10/10 06:22:52;;;;;;;10.10;4.10;;;10.70;99.90;;;;;;5056009;28;20033;-73
2022/10/10 06:25:18;;;;;;;8.77;3.47;;;10.70;99.90;;;;;;5073793;28;20040;-73
2022/10/10 06:27:44;;;;;;;6.77;3.07;;;10.80;99.90;;;;;;5073805;28;20032;-73
2022/10/10 06:30:10;;;;;;;5.43;3.20;;;10.80;99.90;;;;;;5073577;28;20063;-72
2022/10/10 06:32:37;;;;;;;6.53;3.20;;;10.80;99.90;;;;;;5073736;28;20488;-73
2022/10/10 06:35:03;;;;;;;5.57;3.00;;;10.80;99.90;;;;;;5073741;28;20090;-72
2022/10/10 06:37:28;;;;;;;6.83;3.00;;;10.80;99.90;;;;;;5073617;28;20025;-73
2022/10/10 06:39:55;;;;;;;8.87;3.80;;;10.90;99.90;;;;;;5073555;28;20459;-73
2022/10/10 06:42:21;;;;;;;8.63;3.70;;;10.90;99.90;;;;;;5073551;28;20036;-72
2022/10/10 06:44:56;;;;;;;10.10;3.70;;;11.00;99.90;;;;;;5055451;28;20404;-73
2022/10/10 06:47:22;;;;;;;8.17;3.60;;;11.00;99.90;;;;;;5073401;28;20043;-72
2022/10/10 06:49:48;;;;;;;8.47;3.20;;;11.00;99.90;;;;;;5073152;28;20461;-73
2022/10/10 06:52:14;;;;;;;6.30;3.53;;;11.10;99.90;;;;;;5073287;28;20082;-73
2022/10/10 06:54:40;;;;;;;8.83;3.23;;;11.10;99.90;;;;;;5073606;28;20241;-73
2022/10/10 06:57:06;;;;;;;6.67;2.97;;;11.10;99.90;;;;;;5055387;28;20033;-73
2022/10/10 06:59:32;;;;;;;7.07;3.10;;;11.20;99.90;;;;;;5072982;28;20029;-73
2022/10/10 07:01:57;;;;;;;8.00;4.03;;;11.20;99.90;;;;;;5073188;28;20554;-73
2022/10/10 07:04:23;;;;;;;7.53;3.23;;;11.30;99.90;;;;;;5072100;28;20115;-73
2022/10/10 07:06:49;;;;;;;12.77;3.37;;;11.30;99.90;;;;;;5072993;28;20496;-73
2022/10/10 07:09:17;;;;;;;6.13;3.30;;;11.30;99.90;;;;;;5072962;28;20032;-73
2022/10/10 07:11:44;;;;;;;9.67;3.30;;;11.40;99.90;;;;;;5073089;28;20055;-73
2022/10/10 07:14:11;;;;;;;6.20;3.07;;;11.40;99.90;;;;;;5073156;28;20044;-73
2022/10/10 07:16:37;;;;;;;6.23;3.00;;;11.40;99.90;;;;;;5072890;28;20473;-73
2022/10/10 07:19:03;;;;;;;6.93;3.20;;;11.40;99.90;;;;;;5072824;28;20032;-73
2022/10/10 07:21:30;;;;;;;8.17;3.37;;;11.50;99.90;;;;;;5072652;28;20024;-73
2022/10/10 07:23:56;;;;;;;6.77;3.30;;;11.50;99.90;;;;;;5072973;28;20477;-73
2022/10/10 07:26:26;;;;;;;10.60;3.20;;;11.50;99.90;;;;;;5054780;28;20472;-73
2022/10/10 07:28:52;;;;;;;9.83;2.93;;;11.50;99.90;;;;;;5072671;28;20085;-73
2022/10/10 07:31:18;;;;;;;6.47;3.30;;;11.50;99.90;;;;;;5072620;28;20071;-73
2022/10/10 07:33:47;;;;;;;8.53;3.27;;;11.50;99.90;;;;;;5072695;28;20028;-73
2022/10/10 07:36:13;;;;;;;7.28;3.13;;;11.60;99.90;;;;;;5072617;28;20024;-73
2022/10/10 07:38:40;;;;;;;6.33;2.87;;;11.50;99.90;;;;;;5072476;28;20571;-73
2022/10/10 07:41:07;;;;;;;5.47;3.17;;;11.60;99.90;;;;;;5072569;28;20333;-73
2022/10/10 07:43:34;;;;;;;6.77;3.20;;;11.60;99.90;;;;;;5072480;28;20028;-73
2022/10/10 07:46:00;;;;;;;5.67;2.73;;;11.60;99.90;;;;;;5054342;28;20463;-73
2022/10/10 07:48:26;;;;;;;7.30;2.87;;;11.60;99.90;;;;;;5072388;28;20032;-73
2022/10/10 07:50:52;;;;;;;7.43;3.20;;;11.60;99.90;;;;;;5072066;28;20510;-73
2022/10/10 07:53:18;;;;;;;6.47;3.40;;;11.60;99.90;;;;;;5072418;28;20115;-73
2022/10/10 07:55:44;;;;;;;8.93;3.47;;;11.70;99.90;;;;;;5071991;28;20566;-73
2022/10/10 07:58:11;;;;;;;7.90;2.93;;;11.70;99.90;;;;;;5072260;28;20066;-73
2022/10/10 08:00:40;;;;;;;7.00;3.33;;;11.70;99.90;;;;;;5072307;28;20465;-73
2022/10/10 08:03:10;;;;;;;6.63;3.07;;;11.70;99.90;;;;;;5072200;28;20028;-73
2022/10/10 08:05:41;;;;;;;9.13;3.70;;;11.80;99.90;;;;;;5072027;28;20028;-73
2022/10/10 08:08:08;;;;;;;5.60;2.87;;;11.80;99.90;;;;;;5072404;28;20036;-73
2022/10/10 08:10:34;;;;;;;6.43;3.33;;;11.80;99.90;;;;;;5053933;28;20095;-73
2022/10/10 08:13:00;;;;;;;7.00;3.37;;;11.80;99.90;;;;;;5071699;28;20238;-73
2022/10/10 08:15:26;;;;;;;5.70;2.97;;;11.80;99.90;;;;;;5071563;28;20666;-73
2022/10/10 08:17:52;;;;;;;8.10;2.90;;;11.90;99.90;;;;;;5071725;28;20060;-73
2022/10/10 08:20:18;;;;;;;6.97;3.07;;;11.90;99.90;;;;;;5053910;28;20169;-73
2022/10/10 08:22:44;;;;;;;7.30;3.27;;;11.90;99.90;;;;;;5071571;28;20512;-73
2022/10/10 08:25:10;;;;;;;6.33;3.73;;;11.90;99.90;;;;;;5071702;28;20039;-73
2022/10/10 08:27:36;;;;;;;6.13;2.87;;;11.90;99.90;;;;;;5071465;28;20493;-73
2022/10/10 08:30:02;;;;;;;7.53;3.73;;;12.00;99.90;;;;;;5053756;28;20101;-73
2022/10/10 08:32:28;;;;;;;8.57;3.00;;;12.00;99.90;;;;;;5071503;28;20438;-73
2022/10/10 08:34:54;;;;;;;8.03;3.03;;;12.10;99.90;;;;;;5071476;28;20052;-73
2022/10/10 08:37:20;;;;;;;28.70;4.87;;;12.10;99.90;;;;;;5071334;28;20396;-73
2022/10/10 08:39:46;;;;;;;11.23;3.43;;;12.20;99.90;;;;;;5071132;28;20047;-73
2022/10/10 08:42:17;;;;;;;7.00;3.23;;;12.20;99.90;;;;;;5071253;28;20043;-73
2022/10/10 08:44:52;;;;;;;12.33;4.07;;;12.20;99.90;;;;;;5071378;28;20484;-73
2022/10/10 08:47:29;;;;;;;7.63;3.43;;;12.30;99.90;;;;;;5071284;28;20397;-73
2022/10/10 08:50:01;;;;;;;7.17;3.00;;;12.40;99.90;;;;;;5071057;28;20044;-73
2022/10/10 08:52:59;;;;;;;6.57;3.43;;;12.40;99.90;;;;;;5071273;28;20033;-73
2022/10/10 08:55:36;;;;;;;7.07;3.30;;;12.40;99.90;;;;;;5071061;28;20020;-73
2022/10/10 08:58:22;;;;;;;6.70;2.97;;;12.50;99.90;;;;;;5071304;28;20111;-73
2022/10/10 09:01:30;;;;;;;7.38;3.53;;;12.50;99.90;;;;;;5071003;28;20058;-73
2022/10/10 09:04:01;;;;;;;9.43;3.25;;;12.60;99.90;;;;;;4992769;28;20022;-73
2022/10/10 09:06:47;;;;;;;9.10;3.27;;;12.70;99.90;;;;;;5008886;28;20034;-73
2022/10/10 09:09:18;;;;;;;4.95;3.08;;;12.70;99.90;;;;;;5036500;28;20135;-73
2022/10/10 09:12:07;;;;;;;6.60;3.45;;;12.70;99.90;;;;;;5071163;28;20035;-73
2022/10/10 09:14:38;;;;;;;7.57;3.35;;;12.80;99.90;;;;;;5070918;28;20030;-73
2022/10/10 09:17:11;;;;;;;9.30;3.78;;;12.90;99.90;;;;;;5070729;28;20035;-73
2022/10/10 09:19:47;;;;;;;8.85;4.15;;;13.00;99.90;;;;;;5071117;28;20028;-73
2022/10/10 09:22:18;;;;;;;10.55;3.90;;;13.00;99.90;;;;;;5052963;28;20128;-73
2022/10/10 09:24:54;;;;;;;8.55;3.83;;;13.10;99.90;;;;;;5052773;28;20090;-73
2022/10/10 09:27:28;;;;;;;9.95;3.58;;;13.10;99.90;;;;;;5070110;28;20077;-73
2022/10/10 09:30:18;;;;;;;10.43;4.07;;;13.20;99.90;;;;;;5070514;28;20035;-73
2022/10/10 09:32:58;;;;;;;11.60;4.00;;;13.30;99.90;;;;;;5070824;28;20054;-73
2022/10/10 09:35:28;;;;;;;10.18;4.00;;;13.30;99.90;;;;;;5071060;28;20024;-73
2022/10/10 09:38:25;;;;;;;10.35;3.90;;;13.40;99.90;;;;;;5070675;28;20450;-73
2022/10/10 09:41:25;;;;;;;6.82;3.60;;;13.40;99.90;;;;;;5031878;28;20046;-73
2022/10/10 09:43:56;;;;;;;8.32;3.25;;;13.40;99.90;;;;;;5038146;28;20123;-73
2022/10/10 09:46:22;;;;;;;7.47;3.55;;;13.50;99.90;;;;;;5071105;28;20078;-73
2022/10/10 09:48:48;;;;;;;8.80;3.47;;;13.50;99.90;;;;;;5052548;28;20497;-73
2022/10/10 09:51:17;;;;;;;10.93;3.60;;;13.50;99.90;;;;;;5070588;28;20025;-73
2022/10/10 09:53:46;;;;;;;7.05;3.33;;;13.50;99.90;;;;;;5070609;28;20400;-73
2022/10/10 09:56:21;;;;;;;6.77;3.53;;;13.50;99.90;;;;;;5070403;28;20067;-73
2022/10/10 09:58:49;;;;;;;6.90;3.38;;;13.50;99.90;;;;;;5070688;28;20300;-73
2022/10/10 10:01:33;;;;;;;10.40;3.50;;;13.50;99.90;;;;;;5070318;28;20028;-73
2022/10/10 10:04:17;;;;;;;8.82;3.30;;;13.50;99.90;;;;;;5070878;28;20462;-73
2022/10/10 10:06:49;;;;;;;14.30;3.50;;;13.60;99.90;;;;;;5052660;28;20052;-73
2022/10/10 10:09:21;;;;;;;9.48;3.58;;;13.60;99.90;;;;;;5052461;28;20556;-73
2022/10/10 10:11:54;;;;;;;9.98;3.83;;;13.60;99.90;;;;;;5070340;28;20028;-73
2022/10/10 10:14:26;;;;;;;9.85;3.65;;;13.70;99.90;;;;;;5070790;28;20021;-73
2022/10/10 10:16:54;;;;;;;9.25;3.65;;;13.70;99.90;;;;;;5070588;28;20036;-73
2022/10/10 10:19:41;;;;;;;9.38;3.97;;;13.80;99.90;;;;;;5070314;28;20457;-73
2022/10/10 10:22:30;;;;;;;11.02;4.10;;;14.00;99.90;;;;;;5070382;28;20031;-73
2022/10/10 10:24:56;;;;;;;;;;;14.00;99.90;;;;;;5071102;28;20034;-73
2022/10/10 10:27:24;;;;;;;13.93;4.50;;;14.10;99.90;;;;;;5052427;28;19955;-73
2022/10/10 10:29:53;;;;;;;10.32;3.78;;;14.10;99.90;;;;;;5070079;28;20058;-73
2022/10/10 10:33:04;;;;;;;8.02;3.90;;;14.20;99.90;;;;;;5070267;28;20389;-73
2022/10/10 10:36:02;;;;;;;10.35;4.07;;;14.20;99.90;;;;;;5052169;28;20036;-73
2022/10/10 10:39:11;;;;;;;10.70;4.28;;;14.30;99.90;;;;;;5054497;28;20033;-73
2022/10/10 10:41:41;;;;;;;12.20;4.63;;;14.40;99.90;;;;;;5073993;28;20051;-73
2022/10/10 10:44:44;;;;;;;8.82;4.07;;;14.40;99.90;;;;;;5055826;28;20029;-73
2022/10/10 10:47:47;;;;;;;8.35;3.53;;;14.40;99.90;;;;;;5073360;28;20039;-73
2022/10/10 10:50:44;;;;;;;9.05;4.90;;;14.40;99.90;;;;;;5073305;28;20025;-73
2022/10/10 10:53:48;;;;;;;8.32;3.50;;;14.50;99.90;;;;;;5073435;28;20031;-73
2022/10/10 10:56:32;;;;;;;12.65;3.40;;;14.60;99.90;;;;;;5011058;28;20037;-73
2022/10/10 10:59:10;;;;;;;8.27;3.25;;;14.60;99.90;;;;;;5069764;28;20036;-73
2022/10/10 11:01:58;;;;;;;13.38;4.10;;;14.70;99.90;;;;;;5073256;28;20051;-73
2022/10/10 11:05:12;;;;;;;9.10;3.10;;;14.80;99.90;;;;;;5073229;28;20035;-73
2022/10/10 11:07:48;;;;;;;8.85;2.70;;;14.80;99.90;;;;;;5055175;28;20393;-73
2022/10/10 11:10:45;;;;;;;10.52;3.08;;;14.80;99.90;;;;;;5072861;28;20415;-73
2022/10/10 11:13:34;;;;;;;8.25;3.00;;;14.90;99.90;;;;;;5072995;28;20028;-73
2022/10/10 11:16:24;;;;;;;10.05;3.58;;;14.90;99.90;;;;;;5073073;28;20052;-73
2022/10/10 11:19:02;;;;;;;7.43;3.55;;;15.00;99.90;;;;;;5072948;28;20032;-73
2022/10/10 11:21:31;;;;;;;11.40;3.20;;;15.00;99.90;;;;;;5072986;28;20040;-73
2022/10/10 11:24:08;;;;;;;6.78;2.75;;;15.00;99.90;;;;;;5072927;28;20478;-73
2022/10/10 11:26:41;;;;;;;9.05;3.15;;;15.00;99.90;;;;;;5072795;28;20066;-73
2022/10/10 11:29:11;;;;;;;9.95;3.30;;;15.00;99.90;;;;;;5072527;28;20028;-73
2022/10/10 11:31:48;;;;;;;7.38;3.10;;;15.10;99.90;;;;;;5072723;28;20392;-73
2022/10/10 11:34:22;;;;;;;12.95;3.20;;;15.10;99.90;;;;;;5072727;28;20124;-73
2022/10/10 11:36:50;;;;;;;8.98;2.72;;;15.10;99.90;;;;;;5072614;28;20028;-73
2022/10/10 11:39:21;;;;;;;8.10;3.20;;;15.20;99.90;;;;;;5072423;28;20063;-73
2022/10/10 11:42:12;;;;;;;7.85;3.03;;;15.20;99.90;;;;;;5072410;28;20329;-73
2022/10/10 11:44:55;;;;;;;7.07;2.97;;;15.20;99.90;;;;;;5072524;28;20028;-73
2022/10/10 11:48:03;;;;;;;12.63;3.55;;;15.30;99.90;;;;;;5054527;28;20033;-73
2022/10/10 11:50:33;;;;;;;7.13;3.05;;;15.20;99.90;;;;;;5009650;28;20041;-73
2022/10/10 11:53:14;;;;;;;11.38;2.95;;;15.20;99.90;;;;;;5010244;28;20541;-73
2022/10/10 11:58:38;;;;;;;11.55;3.00;;;15.30;99.90;;;;;;5031002;28;20227;-74
2022/10/10 12:01:28;;;;;;;10.07;2.67;;;15.40;99.90;;;;;;5032482;28;20455;-70
2022/10/10 12:03:56;;;;;;;12.20;3.00;;;15.40;99.90;;;;;;5031160;28;20102;-71
2022/10/10 12:06:32;;;;;;;11.68;2.92;;;15.40;99.90;;;;;;5031996;28;20370;-71
2022/10/10 12:09:05;;;;;;;9.90;3.38;;;15.50;99.90;;;;;;5032127;28;20440;-70
2022/10/10 12:11:38;;;;;;;7.70;2.63;;;15.60;99.90;;;;;;5032092;28;20104;-71
2022/10/10 12:14:08;;;;;;;8.73;2.67;;;15.50;99.90;;;;;;5032089;28;20394;-71
2022/10/10 12:16:37;;;;;;;7.40;2.60;;;15.50;99.90;;;;;;5032091;28;20028;-71
2022/10/10 12:19:14;;;;;;;10.63;2.88;;;15.50;99.90;;;;;;5030703;28;20040;-71
2022/10/10 12:22:04;;;;;;;10.05;2.85;;;15.60;99.90;;;;;;5032007;28;20032;-71
2022/10/10 12:24:33;;;;;;;13.77;3.20;;;15.60;99.90;;;;;;5031874;28;20500;-70
2022/10/10 12:26:59;;;;;;;9.32;3.13;;;15.60;99.90;;;;;;5030484;28;20037;-71
2022/10/10 12:29:46;;;;;;;8.80;2.50;;;15.70;99.90;;;;;;5031434;28;20493;-70
2022/10/10 12:32:16;;;;;;;8.63;2.47;;;15.70;99.90;;;;;;5030517;28;20042;-70
2022/10/10 12:34:48;;;;;;;12.10;2.90;;;15.60;99.90;;;;;;5031719;28;20025;-70
2022/10/10 12:37:26;;;;;;;11.38;2.60;;;15.70;99.90;;;;;;5031562;28;20025;-70
2022/10/10 12:40:16;;;;;;;9.23;2.72;;;15.70;99.90;;;;;;5031387;28;20045;-70
2022/10/10 12:42:48;;;;;;;10.70;2.60;;;15.80;99.90;;;;;;5031644;28;20036;-70
2022/10/10 12:45:31;;;;;;;8.80;2.50;;;15.80;99.90;;;;;;5031598;28;20029;-70
2022/10/10 12:48:00;;;;;;;11.75;3.03;;;15.70;99.90;;;;;;5031360;28;20120;-70
2022/10/10 12:50:33;;;;;;;;;;;15.80;99.90;;;;;;5031726;28;20390;-70
2022/10/10 12:53:26;;;;;;;7.93;2.90;;;15.80;99.90;;;;;;5031634;28;20381;-71
2022/10/10 12:55:59;;;;;;;10.43;2.90;;;15.90;99.90;;;;;;5028266;28;20375;-71
2022/10/10 12:58:30;;;;;;;16.02;3.00;;;15.90;99.90;;;;;;5031198;28;20048;-70
2022/10/10 13:00:59;;;;;;;16.20;3.20;;;16.00;99.90;;;;;;5030497;28;20030;-70
2022/10/10 13:03:27;;;;;;;7.90;2.72;;;16.10;99.90;;;;;;5031303;28;20060;-71
2022/10/10 13:05:55;;;;;;;16.70;3.30;;;16.10;99.90;;;;;;5031103;28;20116;-70
2022/10/10 13:08:27;;;;;;;6.93;2.38;;;16.10;99.90;;;;;;5031183;28;20031;-70
2022/10/10 13:11:20;;;;;;;12.75;3.30;;;16.10;99.90;;;;;;5029592;28;20493;-71
2022/10/10 13:13:53;;;;;;;10.45;2.70;;;16.20;99.90;;;;;;5027571;28;20047;-71
2022/10/10 13:16:27;;;;;;;14.80;2.92;;;16.10;99.90;;;;;;5030966;28;20425;-70